createdAt,value
2023-01-09T00:01:47.277Z,3.04
2023-01-09T00:04:15.357Z,3.06
2023-01-09T00:06:43.565Z,3.03
2023-01-09T00:09:11.864Z,3.05
2023-01-09T00:11:40.930Z,3.07
2023-01-09T00:14:10.898Z,3.06
2023-01-09T00:16:38.834Z,3.14
2023-01-09T00:19:06.588Z,3.16
2023-01-09T00:21:34.264Z,3.32
2023-01-09T00:24:01.934Z,3.49
2023-01-09T00:26:29.997Z,3.71
2023-01-09T00:29:02.737Z,3.92
2023-01-09T00:31:30.547Z,4.09
2023-01-09T00:34:02.365Z,4.22
2023-01-09T00:36:33.214Z,4.30
2023-01-09T00:39:00.904Z,4.39
2023-01-09T00:41:31.451Z,4.46
2023-01-09T00:44:04.215Z,4.51
2023-01-09T00:46:35.530Z,4.51
2023-01-09T00:49:06.161Z,4.53
2023-01-09T00:51:33.864Z,4.54
2023-01-09T00:54:03.993Z,4.55
2023-01-09T00:56:32.258Z,4.61
2023-01-09T00:59:00.030Z,4.59
2023-01-09T01:01:29.188Z,4.55
2023-01-09T01:03:57.100Z,4.55
2023-01-09T01:06:42.082Z,4.52
2023-01-09T01:09:10.220Z,4.49
2023-01-09T01:11:37.865Z,4.46
2023-01-09T01:14:09.731Z,4.46
2023-01-09T01:16:38.794Z,4.48
2023-01-09T01:19:06.775Z,4.49
2023-01-09T01:21:34.459Z,4.43
2023-01-09T01:24:04.391Z,4.37
2023-01-09T01:26:32.631Z,4.34
2023-01-09T01:29:00.445Z,4.25
2023-01-09T01:31:28.203Z,4.19
2023-01-09T01:33:58.550Z,4.12
2023-01-09T01:36:26.235Z,4.06
2023-01-09T01:38:54.112Z,4.03
2023-01-09T01:41:29.659Z,3.99
2023-01-09T01:44:00.123Z,4.04
2023-01-09T01:46:28.682Z,3.99
2023-01-09T01:49:06.967Z,3.95
2023-01-09T01:51:41.085Z,3.93
2023-01-09T01:54:14.939Z,3.90
2023-01-09T01:56:48.863Z,3.87
2023-01-09T01:59:21.583Z,3.80
2023-01-09T02:01:51.764Z,3.74
2023-01-09T02:04:21.155Z,3.68
2023-01-09T02:06:53.355Z,3.63
2023-01-09T02:09:22.890Z,3.61
2023-01-09T02:11:53.321Z,3.56
2023-01-09T02:14:24.184Z,3.55
2023-01-09T02:17:01.461Z,3.54
2023-01-09T02:19:54.683Z,3.54
2023-01-09T02:22:36.940Z,3.56
2023-01-09T02:25:38.041Z,3.57
2023-01-09T02:28:33.742Z,3.55
2023-01-09T02:31:09.097Z,3.50
2023-01-09T02:33:54.009Z,3.57
2023-01-09T02:36:32.581Z,3.60
2023-01-09T02:39:14.172Z,3.68
2023-01-09T02:41:49.963Z,3.68
2023-01-09T02:44:23.845Z,3.78
2023-01-09T02:47:07.775Z,3.89
2023-01-09T02:49:39.591Z,3.94
2023-01-09T02:52:30.877Z,3.98
2023-01-09T02:55:09.613Z,4.01
2023-01-09T02:57:51.782Z,4.07
2023-01-09T03:00:34.968Z,4.02
2023-01-09T03:03:12.347Z,3.99
2023-01-09T03:05:47.146Z,4.03
2023-01-09T03:08:19.325Z,3.99
2023-01-09T03:10:53.821Z,3.96
2023-01-09T03:13:25.441Z,3.97
2023-01-09T03:15:56.515Z,3.91
2023-01-09T03:18:29.860Z,3.92
2023-01-09T03:20:58.801Z,3.90
2023-01-09T03:23:26.546Z,3.88
2023-01-09T03:25:54.270Z,3.88
2023-01-09T03:28:29.822Z,3.89
2023-01-09T03:30:57.331Z,3.87
2023-01-09T03:33:26.957Z,3.82
2023-01-09T03:35:54.626Z,3.75
2023-01-09T03:38:24.912Z,3.75
2023-01-09T03:40:52.575Z,3.75
2023-01-09T03:43:20.251Z,3.76
2023-01-09T03:45:48.034Z,3.76
2023-01-09T03:48:15.697Z,3.76
2023-01-09T03:50:47.218Z,3.74
2023-01-09T03:53:18.722Z,3.74
2023-01-09T03:55:47.693Z,3.72
2023-01-09T03:58:17.303Z,3.66
2023-01-09T04:00:48.723Z,3.65
2023-01-09T04:03:17.790Z,3.65
2023-01-09T04:05:51.690Z,3.63
2023-01-09T04:08:19.915Z,3.67
2023-01-09T04:10:48.251Z,3.76
2023-01-09T04:13:16.160Z,3.77
2023-01-09T04:15:43.904Z,3.88
2023-01-09T04:18:11.638Z,3.92
2023-01-09T04:20:39.338Z,3.91
2023-01-09T04:23:08.593Z,4.00
2023-01-09T04:25:36.388Z,4.04
2023-01-09T04:28:05.640Z,4.08
2023-01-09T04:30:33.314Z,4.12
2023-01-09T04:33:01.033Z,4.20
2023-01-09T04:35:29.197Z,4.22
2023-01-09T04:37:58.734Z,4.28
2023-01-09T04:40:27.976Z,4.31
2023-01-09T04:42:55.644Z,4.39
2023-01-09T04:45:23.368Z,4.49
2023-01-09T04:47:51.100Z,4.58
2023-01-09T04:50:21.759Z,4.64
2023-01-09T04:52:51.552Z,4.75
2023-01-09T04:55:19.386Z,4.83
2023-01-09T04:57:48.439Z,4.94
2023-01-09T05:00:17.040Z,5.21
2023-01-09T05:02:44.750Z,5.32
2023-01-09T05:05:12.719Z,5.43
2023-01-09T05:07:40.753Z,5.47
2023-01-09T05:10:10.293Z,5.63
2023-01-09T05:12:38.021Z,5.77
2023-01-09T05:15:09.234Z,5.84
2023-01-09T05:17:37.452Z,6.04
2023-01-09T05:20:05.528Z,6.11
2023-01-09T05:22:33.386Z,6.26
2023-01-09T05:25:01.074Z,6.45
2023-01-09T05:27:30.307Z,6.57
2023-01-09T05:30:00.972Z,6.60
2023-01-09T05:32:30.002Z,6.61
2023-01-09T05:34:59.959Z,6.72
2023-01-09T05:37:27.631Z,6.76
2023-01-09T05:39:55.291Z,6.72
2023-01-09T05:42:22.985Z,6.73
2023-01-09T05:44:50.788Z,6.77
2023-01-09T05:47:19.638Z,6.78
2023-01-09T05:49:48.687Z,6.72
2023-01-09T05:52:16.411Z,6.73
2023-01-09T05:54:44.067Z,6.70
2023-01-09T05:57:11.759Z,6.67
2023-01-09T05:59:39.440Z,6.61
2023-01-09T06:02:07.248Z,6.56
2023-01-09T06:04:34.983Z,6.55
2023-01-09T06:07:04.096Z,6.52
2023-01-09T06:09:33.669Z,6.58
2023-01-09T06:12:01.340Z,6.48
2023-01-09T06:14:29.780Z,6.41
2023-01-09T06:16:58.091Z,6.46
2023-01-09T06:19:25.831Z,6.45
2023-01-09T06:21:53.777Z,6.41
2023-01-09T06:24:22.860Z,6.39
2023-01-09T06:26:50.909Z,6.44
2023-01-09T06:29:18.789Z,6.46
2023-01-09T06:31:48.142Z,6.46
2023-01-09T06:34:15.772Z,6.43
2023-01-09T06:36:43.916Z,6.44
2023-01-09T06:39:13.294Z,6.40
2023-01-09T06:41:42.385Z,6.35
2023-01-09T06:44:10.035Z,6.28
2023-01-09T06:46:37.747Z,6.23
2023-01-09T06:49:05.424Z,6.20
2023-01-09T06:51:33.141Z,6.17
2023-01-09T06:54:00.829Z,6.17
2023-01-09T06:56:28.449Z,6.15
2023-01-09T06:58:57.484Z,6.14
2023-01-09T07:01:25.234Z,6.14
2023-01-09T07:03:53.029Z,6.12
2023-01-09T07:06:20.756Z,6.12
2023-01-09T07:08:48.452Z,6.07
2023-01-09T07:11:16.101Z,6.07
2023-01-09T07:13:43.921Z,6.07
2023-01-09T07:16:16.252Z,6.07
2023-01-09T07:18:43.970Z,6.08
2023-01-09T07:21:11.705Z,6.09
2023-01-09T07:23:39.350Z,6.11
2023-01-09T07:26:07.091Z,6.09
2023-01-09T07:28:34.811Z,6.07
2023-01-09T07:31:04.553Z,6.10
2023-01-09T07:33:36.756Z,6.06
2023-01-09T07:36:04.472Z,6.01
2023-01-09T07:38:33.036Z,6.06
2023-01-09T07:41:00.742Z,5.99
2023-01-09T07:43:28.578Z,5.98
2023-01-09T07:45:56.366Z,5.99
2023-01-09T07:48:24.031Z,5.99
2023-01-09T07:50:53.104Z,5.99
2023-01-09T07:53:20.788Z,5.97
2023-01-09T07:55:48.440Z,5.90
2023-01-09T07:58:16.116Z,5.88
2023-01-09T08:00:43.810Z,5.91
2023-01-09T08:03:11.598Z,5.85
2023-01-09T08:05:39.307Z,5.84
2023-01-09T08:08:08.557Z,5.83
2023-01-09T08:10:36.256Z,5.81
2023-01-09T08:13:03.939Z,5.81
2023-01-09T08:15:33.537Z,5.75
2023-01-09T08:18:01.307Z,5.83
2023-01-09T08:20:29.007Z,5.85
2023-01-09T08:22:56.876Z,5.87
2023-01-09T08:25:26.577Z,5.87
2023-01-09T08:27:54.229Z,5.89
2023-01-09T08:30:22.049Z,5.97
2023-01-09T08:32:51.286Z,5.99
2023-01-09T08:35:19.608Z,5.91
2023-01-09T08:37:47.786Z,5.86
2023-01-09T08:40:17.049Z,5.86
2023-01-09T08:43:04.319Z,5.85
2023-01-09T08:45:50.764Z,5.81
2023-01-09T08:48:18.602Z,5.75
2023-01-09T08:50:46.687Z,5.69
2023-01-09T08:53:15.409Z,5.72
2023-01-09T08:55:43.239Z,5.68
2023-01-09T08:58:12.656Z,5.62
2023-01-09T09:00:40.375Z,5.62
2023-01-09T09:03:08.186Z,5.60
2023-01-09T09:05:35.917Z,5.64
2023-01-09T09:08:07.134Z,5.72
2023-01-09T09:10:34.901Z,5.72
2023-01-09T09:13:02.777Z,5.74
2023-01-09T09:15:31.773Z,5.78
2023-01-09T09:18:01.796Z,5.76
2023-01-09T09:20:32.660Z,5.83
2023-01-09T09:23:00.394Z,5.70
2023-01-09T09:25:28.756Z,5.69
2023-01-09T09:27:56.935Z,5.63
2023-01-09T09:30:25.545Z,5.59
2023-01-09T09:32:54.643Z,5.66
2023-01-09T09:35:22.608Z,5.73
2023-01-09T09:38:03.297Z,5.80
2023-01-09T09:40:58.090Z,5.87
2023-01-09T09:43:58.249Z,5.85
2023-01-09T09:46:38.312Z,5.81
2023-01-09T09:49:14.093Z,5.85
2023-01-09T09:51:57.793Z,5.81
2023-01-09T09:54:36.347Z,5.87
2023-01-09T09:57:06.353Z,5.91
2023-01-09T09:59:36.874Z,5.92
2023-01-09T10:02:21.748Z,5.94
2023-01-09T10:04:56.223Z,5.97
2023-01-09T10:07:32.139Z,5.95
2023-01-09T10:10:05.101Z,5.97
2023-01-09T10:12:38.596Z,5.97
2023-01-09T10:15:17.602Z,6.00
2023-01-09T10:17:56.220Z,6.07
2023-01-09T10:20:59.597Z,6.20
2023-01-09T10:23:59.104Z,6.25
2023-01-09T10:26:32.138Z,6.21
2023-01-09T10:29:27.444Z,6.23
2023-01-09T10:32:05.590Z,6.22
2023-01-09T10:34:48.132Z,6.31
2023-01-09T10:37:21.290Z,6.36
2023-01-09T10:39:53.747Z,6.44
2023-01-09T10:42:24.613Z,6.34
2023-01-09T10:44:56.555Z,6.38
2023-01-09T10:47:29.520Z,6.42
2023-01-09T10:49:58.293Z,6.44
2023-01-09T10:52:34.636Z,6.60
2023-01-09T10:55:19.248Z,6.56
2023-01-09T10:57:51.542Z,6.52
2023-01-09T11:00:23.551Z,6.47
2023-01-09T11:02:52.635Z,6.47
2023-01-09T11:05:22.856Z,6.42
2023-01-09T11:07:57.099Z,6.43
2023-01-09T11:10:24.880Z,6.39
2023-01-09T11:13:12.574Z,6.53
2023-01-09T11:15:40.289Z,6.57
2023-01-09T11:18:24.435Z,6.52
2023-01-09T11:20:52.795Z,6.45
2023-01-09T11:23:31.046Z,6.46
2023-01-09T11:26:00.510Z,6.45
2023-01-09T11:28:28.808Z,6.45
2023-01-09T11:30:59.735Z,6.48
2023-01-09T11:33:29.881Z,6.55
2023-01-09T11:36:01.839Z,6.67
2023-01-09T11:38:32.873Z,6.70
2023-01-09T11:41:02.727Z,6.70
2023-01-09T11:43:38.557Z,6.69
2023-01-09T11:46:07.953Z,6.76
2023-01-09T11:48:40.730Z,6.79
2023-01-09T11:51:20.044Z,6.72
2023-01-09T11:54:08.782Z,6.79
2023-01-09T11:56:37.454Z,6.81
2023-01-09T11:59:12.985Z,6.83
2023-01-09T12:01:58.265Z,6.92
2023-01-09T12:04:33.331Z,6.89
2023-01-09T12:07:21.387Z,7.02
2023-01-09T12:10:00.830Z,7.10
2023-01-09T12:12:37.074Z,7.24
2023-01-09T12:15:22.072Z,7.13
2023-01-09T12:18:03.523Z,7.04
2023-01-09T12:20:41.459Z,7.11
2023-01-09T12:23:30.865Z,7.03
2023-01-09T12:26:12.205Z,6.92
2023-01-09T12:29:21.170Z,6.94
2023-01-09T12:32:04.230Z,6.97
2023-01-09T12:34:53.797Z,7.03
2023-01-09T12:37:44.100Z,7.09
2023-01-09T12:40:32.394Z,7.20
2023-01-09T12:43:11.370Z,7.10
2023-01-09T12:45:51.386Z,7.11
2023-01-09T12:48:32.031Z,7.09
2023-01-09T12:51:26.458Z,7.09
2023-01-09T12:54:03.186Z,7.20
2023-01-09T12:56:34.534Z,7.23
2023-01-09T12:59:13.117Z,7.28
2023-01-09T13:01:46.348Z,7.14
2023-01-09T13:04:20.563Z,7.10
2023-01-09T13:06:54.639Z,7.13
2023-01-09T13:09:27.495Z,7.18
2023-01-09T13:12:03.641Z,7.27
2023-01-09T13:14:45.482Z,7.26
2023-01-09T13:17:19.714Z,7.07
2023-01-09T13:19:47.441Z,7.11
2023-01-09T13:22:18.017Z,7.17
2023-01-09T13:25:03.957Z,7.08
2023-01-09T13:27:34.188Z,6.97
2023-01-09T13:30:16.423Z,6.93
2023-01-09T13:32:58.450Z,6.92
2023-01-09T13:35:26.225Z,6.91
2023-01-09T13:37:54.835Z,6.94
2023-01-09T13:40:30.437Z,6.99
2023-01-09T13:43:00.002Z,6.97
2023-01-09T13:45:30.676Z,6.97
2023-01-09T13:48:29.371Z,6.89
2023-01-09T13:51:37.161Z,6.92
2023-01-09T13:54:05.133Z,6.88
2023-01-09T13:56:32.899Z,6.94
2023-01-09T13:59:05.344Z,6.87
2023-01-09T14:01:47.680Z,6.89
2023-01-09T14:04:43.081Z,6.82
2023-01-09T14:07:24.124Z,6.79
2023-01-09T14:09:56.925Z,6.83
2023-01-09T14:12:25.120Z,6.79
2023-01-09T14:14:58.707Z,6.76
2023-01-09T14:17:36.543Z,6.80
2023-01-09T14:20:07.988Z,6.81
2023-01-09T14:22:46.159Z,6.75
2023-01-09T14:25:27.060Z,6.79
2023-01-09T14:28:21.936Z,6.70
2023-01-09T14:31:08.728Z,6.75
2023-01-09T14:33:38.011Z,6.70
2023-01-09T14:36:25.125Z,6.67
2023-01-09T14:38:55.153Z,6.73
2023-01-09T14:41:48.893Z,6.70
2023-01-09T14:44:28.285Z,6.70
2023-01-09T14:46:59.666Z,6.70
2023-01-09T14:49:36.497Z,6.67
2023-01-09T14:52:13.893Z,6.71
2023-01-09T14:54:44.241Z,6.73
2023-01-09T14:57:25.511Z,6.69
2023-01-09T15:00:01.241Z,6.72
2023-01-09T15:02:31.963Z,6.67
2023-01-09T15:05:05.974Z,6.68
2023-01-09T15:07:40.509Z,6.66
2023-01-09T15:10:16.167Z,6.65
2023-01-09T15:12:46.147Z,6.60
2023-01-09T15:15:16.179Z,6.57
2023-01-09T15:17:49.980Z,6.50
2023-01-09T15:20:24.862Z,6.48
2023-01-09T15:22:54.835Z,6.50
2023-01-09T15:25:33.861Z,6.50
2023-01-09T15:28:25.039Z,6.48
2023-01-09T15:30:56.990Z,6.49
2023-01-09T15:33:27.666Z,6.51
2023-01-09T15:36:02.011Z,6.51
2023-01-09T15:38:32.944Z,6.50
2023-01-09T15:41:05.378Z,6.49
2023-01-09T15:43:33.214Z,6.46
2023-01-09T15:46:02.388Z,6.44
2023-01-09T15:48:32.950Z,6.42
2023-01-09T15:51:06.761Z,6.41
2023-01-09T15:53:35.114Z,6.33
2023-01-09T15:56:14.929Z,6.31
2023-01-09T15:58:47.225Z,6.25
2023-01-09T16:01:30.971Z,6.27
2023-01-09T16:04:05.678Z,6.23
2023-01-09T16:06:37.262Z,6.21
2023-01-09T16:09:06.248Z,6.15
2023-01-09T16:11:36.883Z,6.12
2023-01-09T16:14:15.418Z,6.12
2023-01-09T16:16:47.129Z,6.04
2023-01-09T16:19:32.149Z,5.98
2023-01-09T16:22:02.676Z,5.94
2023-01-09T16:24:40.136Z,5.87
2023-01-09T16:27:22.394Z,5.86
2023-01-09T16:29:55.290Z,5.79
2023-01-09T16:32:28.067Z,5.79
2023-01-09T16:34:57.257Z,5.73
2023-01-09T16:37:27.108Z,5.69
2023-01-09T16:40:24.473Z,5.71
2023-01-09T16:43:03.328Z,5.70
2023-01-09T16:45:33.876Z,5.66
2023-01-09T16:48:02.168Z,5.66
2023-01-09T16:50:30.429Z,5.62
2023-01-09T16:53:08.122Z,5.57
2023-01-09T16:55:35.873Z,5.64
2023-01-09T16:58:04.199Z,5.57
2023-01-09T17:00:32.102Z,5.57
2023-01-09T17:03:00.771Z,5.53
2023-01-09T17:05:28.504Z,5.50
2023-01-09T17:07:57.008Z,5.47
2023-01-09T17:10:26.140Z,5.45
2023-01-09T17:12:53.867Z,5.46
2023-01-09T17:15:21.556Z,5.44
2023-01-09T17:17:49.259Z,5.41
2023-01-09T17:20:18.964Z,5.40
2023-01-09T17:22:46.705Z,5.37
2023-01-09T17:25:33.746Z,5.36
2023-01-09T17:28:21.246Z,5.39
2023-01-09T17:30:49.041Z,5.37
2023-01-09T17:33:18.358Z,5.35
2023-01-09T17:35:46.244Z,5.34
2023-01-09T17:38:14.967Z,5.31
2023-01-09T17:40:42.937Z,5.31
2023-01-09T17:43:12.932Z,5.26
2023-01-09T17:45:42.585Z,5.24
2023-01-09T17:48:16.288Z,5.19
2023-01-09T17:50:44.410Z,5.15
2023-01-09T17:53:12.153Z,5.09
2023-01-09T17:55:41.134Z,4.94
2023-01-09T17:58:09.433Z,4.95
2023-01-09T18:00:38.595Z,4.95
2023-01-09T18:03:07.773Z,4.92
2023-01-09T18:05:36.946Z,4.86
2023-01-09T18:08:05.851Z,4.82
2023-01-09T18:10:33.616Z,4.79
2023-01-09T18:13:01.523Z,4.74
2023-01-09T18:15:29.248Z,4.81
2023-01-09T18:17:58.315Z,4.84
2023-01-09T18:20:26.086Z,4.87
2023-01-09T18:22:53.961Z,4.84
2023-01-09T18:25:21.733Z,4.81
2023-01-09T18:27:49.514Z,4.77
2023-01-09T18:30:17.369Z,4.75
2023-01-09T18:32:45.097Z,4.70
2023-01-09T18:35:14.173Z,4.65
2023-01-09T18:37:42.009Z,4.58
2023-01-09T18:40:11.035Z,4.49
2023-01-09T18:42:40.303Z,4.48
2023-01-09T18:45:09.036Z,4.42
2023-01-09T18:47:36.726Z,4.45
2023-01-09T18:50:04.854Z,4.42
2023-01-09T18:52:33.927Z,4.39
2023-01-09T18:55:01.699Z,4.35
2023-01-09T18:57:29.449Z,4.34
2023-01-09T18:59:57.182Z,4.29
2023-01-09T19:02:26.685Z,4.20
2023-01-09T19:04:54.714Z,4.20
2023-01-09T19:07:22.463Z,4.23
2023-01-09T19:09:51.584Z,4.15
2023-01-09T19:12:19.277Z,4.09
2023-01-09T19:14:47.107Z,4.06
2023-01-09T19:17:15.424Z,4.07
2023-01-09T19:19:43.146Z,4.10
2023-01-09T19:22:10.889Z,4.07
2023-01-09T19:24:38.785Z,4.10
2023-01-09T19:27:08.045Z,4.14
2023-01-09T19:29:36.796Z,4.14
2023-01-09T19:32:08.340Z,4.18
2023-01-09T19:34:36.440Z,4.13
2023-01-09T19:37:04.428Z,4.05
2023-01-09T19:39:32.644Z,3.98
2023-01-09T19:42:00.433Z,4.00
2023-01-09T19:44:30.400Z,3.96
2023-01-09T19:46:58.172Z,3.96
2023-01-09T19:49:25.897Z,4.00
2023-01-09T19:51:55.119Z,3.98
2023-01-09T19:54:23.037Z,3.97
2023-01-09T19:56:50.792Z,4.01
2023-01-09T19:59:18.728Z,3.99
2023-01-09T20:01:48.050Z,3.95
2023-01-09T20:04:17.351Z,3.97
2023-01-09T20:06:46.729Z,3.95
2023-01-09T20:09:16.835Z,3.94
2023-01-09T20:11:45.637Z,3.85
2023-01-09T20:14:14.548Z,3.76
2023-01-09T20:16:43.160Z,3.72
2023-01-09T20:19:14.153Z,3.66
2023-01-09T20:21:43.161Z,3.59
2023-01-09T20:24:14.449Z,3.65
2023-01-09T20:26:42.302Z,3.66
2023-01-09T20:29:10.240Z,3.64
2023-01-09T20:31:38.220Z,3.60
2023-01-09T20:34:06.091Z,3.62
2023-01-09T20:36:35.253Z,3.66
2023-01-09T20:39:06.063Z,3.67
2023-01-09T20:41:34.312Z,3.69
2023-01-09T20:44:04.831Z,3.68
2023-01-09T20:46:36.639Z,3.71
2023-01-09T20:49:06.513Z,3.77
2023-01-09T20:51:36.500Z,3.81
2023-01-09T20:54:04.417Z,3.87
2023-01-09T20:56:33.652Z,3.91
2023-01-09T20:59:01.596Z,3.88
2023-01-09T21:01:29.900Z,3.85
2023-01-09T21:03:58.395Z,3.82
2023-01-09T21:06:27.249Z,3.78
2023-01-09T21:08:56.382Z,3.80
2023-01-09T21:11:24.505Z,3.79
2023-01-09T21:13:52.608Z,3.72
2023-01-09T21:16:24.257Z,3.66
2023-01-09T21:18:52.493Z,3.62
2023-01-09T21:21:21.817Z,3.61
2023-01-09T21:23:52.394Z,3.58
2023-01-09T21:26:24.360Z,3.56
2023-01-09T21:28:55.135Z,3.51
2023-01-09T21:31:25.452Z,3.50
2023-01-09T21:33:54.643Z,3.50
2023-01-09T21:36:22.401Z,3.54
2023-01-09T21:38:52.091Z,3.52
2023-01-09T21:41:40.036Z,3.46
2023-01-09T21:44:29.571Z,3.50
2023-01-09T21:46:57.978Z,3.54
2023-01-09T21:49:26.981Z,3.55
2023-01-09T21:51:55.062Z,3.55
2023-01-09T21:54:23.547Z,3.54
2023-01-09T21:56:53.037Z,3.49
2023-01-09T21:59:21.047Z,3.48
2023-01-09T22:01:50.129Z,3.46
2023-01-09T22:04:20.055Z,3.42
2023-01-09T22:06:47.817Z,3.39
2023-01-09T22:09:16.295Z,3.38
2023-01-09T22:11:44.901Z,3.35
2023-01-09T22:14:15.569Z,3.32
2023-01-09T22:16:43.635Z,3.27
2023-01-09T22:19:12.124Z,3.30
2023-01-09T22:21:40.115Z,3.30
2023-01-09T22:24:08.297Z,3.31
2023-01-09T22:26:36.122Z,3.27
2023-01-09T22:29:06.675Z,3.31
2023-01-09T22:31:39.722Z,3.32
2023-01-09T22:34:07.726Z,3.34
2023-01-09T22:36:35.667Z,3.39
2023-01-09T22:39:03.557Z,3.38
2023-01-09T22:41:31.307Z,3.38
2023-01-09T22:43:59.213Z,3.45
2023-01-09T22:46:27.513Z,3.43
2023-01-09T22:48:56.591Z,3.38
2023-01-09T22:51:24.609Z,3.35
2023-01-09T22:53:52.504Z,3.27
2023-01-09T23:02:16.841Z,3.11
2023-01-09T23:04:44.601Z,3.10
2023-01-09T23:07:12.402Z,3.15
2023-01-09T23:09:40.092Z,3.24
2023-01-09T23:12:08.340Z,3.29
2023-01-09T23:14:37.938Z,3.39
2023-01-09T23:17:07.493Z,3.43
2023-01-09T23:19:37.028Z,3.47
2023-01-09T23:22:05.868Z,3.50
2023-01-09T23:24:34.340Z,3.57
2023-01-09T23:27:02.083Z,3.56
2023-01-09T23:29:32.900Z,3.60
2023-01-09T23:32:00.593Z,3.59
2023-01-09T23:34:28.394Z,3.57
2023-01-09T23:36:57.896Z,3.59
2023-01-09T23:39:25.720Z,3.55
2023-01-09T23:42:11.113Z,3.48
2023-01-09T23:44:38.891Z,3.43
2023-01-09T23:47:06.611Z,3.43
2023-01-09T23:49:34.320Z,3.34
2023-01-09T23:52:05.991Z,3.30
2023-01-09T23:54:33.781Z,3.21
2023-01-09T23:57:04.120Z,3.17
2023-01-09T23:59:31.849Z,3.10
